sensor_id;sensor_type;location;lat;lon;timestamp;pressure;altitude;pressure_sealevel;temperature;humidity
14253;BME280;7210;51.502;10.722;2022-07-23T00:00:46;99770.25;;;17.84;91.27
14253;BME280;7210;51.502;10.722;2022-07-23T00:03:14;99771.06;;;17.85;91.37
14253;BME280;7210;51.502;10.722;2022-07-23T00:05:41;99779.88;;;17.85;91.38
14253;BME280;7210;51.502;10.722;2022-07-23T00:08:08;99783.09;;;17.82;91.78
14253;BME280;7210;51.502;10.722;2022-07-23T00:10:41;99792.19;;;17.91;91.87
14253;BME280;7210;51.502;10.722;2022-07-23T00:13:09;99791.66;;;18.04;91.32
14253;BME280;7210;51.502;10.722;2022-07-23T00:15:37;99783.63;;;18.09;90.94
14253;BME280;7210;51.502;10.722;2022-07-23T00:18:04;99802.06;;;18.11;90.87
14253;BME280;7210;51.502;10.722;2022-07-23T00:20:31;99818.91;;;18.21;90.63
14253;BME280;7210;51.502;10.722;2022-07-23T00:22:59;99824.78;;;18.28;90.35
14253;BME280;7210;51.502;10.722;2022-07-23T00:25:27;99799.88;;;18.28;90.84
14253;BME280;7210;51.502;10.722;2022-07-23T00:27:55;99771.00;;;18.20;91.21
14253;BME280;7210;51.502;10.722;2022-07-23T00:30:24;99794.56;;;18.23;92.08
14253;BME280;7210;51.502;10.722;2022-07-23T00:32:56;99843.81;;;18.22;92.88
14253;BME280;7210;51.502;10.722;2022-07-23T00:35:25;99856.13;;;18.13;96.41
14253;BME280;7210;51.502;10.722;2022-07-23T00:37:54;99815.19;;;17.77;100.00
14253;BME280;7210;51.502;10.722;2022-07-23T00:40:22;99799.63;;;17.34;100.00
14253;BME280;7210;51.502;10.722;2022-07-23T00:42:50;99785.13;;;17.00;100.00
14253;BME280;7210;51.502;10.722;2022-07-23T00:45:18;99762.94;;;16.90;100.00
14253;BME280;7210;51.502;10.722;2022-07-23T00:47:47;99778.41;;;16.83;100.00
14253;BME280;7210;51.502;10.722;2022-07-23T00:50:15;99793.59;;;16.72;100.00
14253;BME280;7210;51.502;10.722;2022-07-23T00:52:44;99781.81;;;16.68;100.00
14253;BME280;7210;51.502;10.722;2022-07-23T00:55:14;99770.06;;;16.64;100.00
14253;BME280;7210;51.502;10.722;2022-07-23T00:57:42;99790.34;;;16.65;100.00
14253;BME280;7210;51.502;10.722;2022-07-23T01:00:13;99810.66;;;16.66;100.00
14253;BME280;7210;51.502;10.722;2022-07-23T01:02:41;99766.56;;;16.64;100.00
14253;BME280;7210;51.502;10.722;2022-07-23T01:05:10;99776.72;;;16.62;100.00
14253;BME280;7210;51.502;10.722;2022-07-23T01:07:38;99781.78;;;16.58;100.00
14253;BME280;7210;51.502;10.722;2022-07-23T01:10:06;99761.75;;;16.56;100.00
14253;BME280;7210;51.502;10.722;2022-07-23T01:12:54;99762.81;;;16.55;100.00
14253;BME280;7210;51.502;10.722;2022-07-23T01:15:22;99777.78;;;16.61;100.00
14253;BME280;7210;51.502;10.722;2022-07-23T01:17:50;99764.16;;;16.57;100.00
14253;BME280;7210;51.502;10.722;2022-07-23T01:20:20;99762.56;;;16.61;100.00
14253;BME280;7210;51.502;10.722;2022-07-23T01:22:50;99756.69;;;16.59;100.00
14253;BME280;7210;51.502;10.722;2022-07-23T01:25:18;99752.41;;;16.58;100.00
14253;BME280;7210;51.502;10.722;2022-07-23T01:27:54;99753.47;;;16.57;100.00
14253;BME280;7210;51.502;10.722;2022-07-23T01:30:21;99741.19;;;16.56;100.00
14253;BME280;7210;51.502;10.722;2022-07-23T01:32:49;99738.25;;;16.53;100.00
14253;BME280;7210;51.502;10.722;2022-07-23T01:35:16;99722.72;;;16.45;100.00
14253;BME280;7210;51.502;10.722;2022-07-23T01:37:43;99731.59;;;16.60;100.00
14253;BME280;7210;51.502;10.722;2022-07-23T01:40:13;99713.44;;;16.67;100.00
14253;BME280;7210;51.502;10.722;2022-07-23T01:42:40;99687.56;;;16.73;100.00
14253;BME280;7210;51.502;10.722;2022-07-23T01:45:10;99701.72;;;16.73;100.00
14253;BME280;7210;51.502;10.722;2022-07-23T01:47:41;99725.75;;;16.73;100.00
14253;BME280;7210;51.502;10.722;2022-07-23T01:50:11;99741.78;;;16.73;100.00
14253;BME280;7210;51.502;10.722;2022-07-23T01:52:56;99730.00;;;16.69;100.00
14253;BME280;7210;51.502;10.722;2022-07-23T01:55:25;99719.88;;;16.71;100.00
14253;BME280;7210;51.502;10.722;2022-07-23T01:57:52;99718.81;;;16.72;100.00
14253;BME280;7210;51.502;10.722;2022-07-23T02:00:22;99734.56;;;16.69;100.00
14253;BME280;7210;51.502;10.722;2022-07-23T02:02:53;99750.03;;;16.72;100.00
14253;BME280;7210;51.502;10.722;2022-07-23T02:05:20;99739.66;;;16.75;100.00
14253;BME280;7210;51.502;10.722;2022-07-23T02:07:47;99705.97;;;16.69;100.00
14253;BME280;7210;51.502;10.722;2022-07-23T02:13:28;99658.19;;;16.73;100.00
14253;BME280;7210;51.502;10.722;2022-07-23T02:15:55;99691.59;;;16.80;100.00
14253;BME280;7210;51.502;10.722;2022-07-23T02:18:22;99722.03;;;16.84;100.00
14253;BME280;7210;51.502;10.722;2022-07-23T02:20:51;99726.81;;;16.77;100.00
14253;BME280;7210;51.502;10.722;2022-07-23T02:23:18;99720.41;;;16.73;100.00
14253;BME280;7210;51.502;10.722;2022-07-23T02:25:45;99702.25;;;16.75;100.00
14253;BME280;7210;51.502;10.722;2022-07-23T02:28:14;99719.09;;;16.76;100.00
14253;BME280;7210;51.502;10.722;2022-07-23T02:30:43;99710.78;;;16.67;100.00
14253;BME280;7210;51.502;10.722;2022-07-23T02:33:10;99701.16;;;16.61;100.00
14253;BME280;7210;51.502;10.722;2022-07-23T02:35:45;99695.56;;;16.63;100.00
14253;BME280;7210;51.502;10.722;2022-07-23T02:38:13;99697.72;;;16.66;100.00
14253;BME280;7210;51.502;10.722;2022-07-23T02:40:41;99708.13;;;16.67;100.00
14253;BME280;7210;51.502;10.722;2022-07-23T02:43:08;99706.50;;;16.61;100.00
14253;BME280;7210;51.502;10.722;2022-07-23T02:45:36;99706.50;;;16.61;100.00
14253;BME280;7210;51.502;10.722;2022-07-23T02:48:05;99696.66;;;16.67;100.00
14253;BME280;7210;51.502;10.722;2022-07-23T02:50:32;99675.25;;;16.62;100.00
14253;BME280;7210;51.502;10.722;2022-07-23T02:53:03;99673.13;;;16.59;100.00
14253;BME280;7210;51.502;10.722;2022-07-23T02:55:33;99688.88;;;16.60;100.00
14253;BME280;7210;51.502;10.722;2022-07-23T02:58:02;99708.66;;;16.64;100.00
14253;BME280;7210;51.502;10.722;2022-07-23T03:00:29;99711.84;;;16.66;100.00
14253;BME280;7210;51.502;10.722;2022-07-23T03:03:05;99713.19;;;16.69;100.00
14253;BME280;7210;51.502;10.722;2022-07-23T03:05:33;99712.41;;;16.63;100.00
14253;BME280;7210;51.502;10.722;2022-07-23T03:08:00;99711.00;;;16.56;100.00
14253;BME280;7210;51.502;10.722;2022-07-23T03:10:27;99724.13;;;16.62;100.00
14253;BME280;7210;51.502;10.722;2022-07-23T03:12:55;99723.56;;;16.60;100.00
14253;BME280;7210;51.502;10.722;2022-07-23T03:15:22;99719.06;;;16.61;100.00
14253;BME280;7210;51.502;10.722;2022-07-23T03:17:49;99707.56;;;16.60;100.00
14253;BME280;7210;51.502;10.722;2022-07-23T03:20:18;99711.56;;;16.63;100.00
14253;BME280;7210;51.502;10.722;2022-07-23T03:22:45;99696.34;;;16.58;100.00
14253;BME280;7210;51.502;10.722;2022-07-23T03:25:13;99703.88;;;16.71;100.00
14253;BME280;7210;51.502;10.722;2022-07-23T03:27:40;99696.13;;;16.75;100.00
14253;BME280;7210;51.502;10.722;2022-07-23T03:30:10;99710.81;;;16.77;100.00
14253;BME280;7210;51.502;10.722;2022-07-23T03:32:37;99708.66;;;16.69;100.00
14253;BME280;7210;51.502;10.722;2022-07-23T03:35:09;99720.41;;;16.68;100.00
14253;BME280;7210;51.502;10.722;2022-07-23T03:37:45;99731.63;;;16.75;100.00
14253;BME280;7210;51.502;10.722;2022-07-23T03:40:12;99718.00;;;16.72;100.00
14253;BME280;7210;51.502;10.722;2022-07-23T03:42:39;99700.13;;;16.72;100.00
14253;BME280;7210;51.502;10.722;2022-07-23T03:45:09;99697.44;;;16.77;100.00
14253;BME280;7210;51.502;10.722;2022-07-23T03:47:39;99692.91;;;16.73;100.00
14253;BME280;7210;51.502;10.722;2022-07-23T03:50:07;99706.78;;;16.70;100.00
14253;BME280;7210;51.502;10.722;2022-07-23T03:52:39;99725.22;;;16.76;100.00
14253;BME280;7210;51.502;10.722;2022-07-23T03:55:08;99725.22;;;16.76;100.00
14253;BME280;7210;51.502;10.722;2022-07-23T03:57:36;99731.63;;;16.75;100.00
14253;BME280;7210;51.502;10.722;2022-07-23T04:00:06;99724.13;;;16.67;100.00
14253;BME280;7210;51.502;10.722;2022-07-23T04:02:40;99736.97;;;16.75;100.00
14253;BME280;7210;51.502;10.722;2022-07-23T04:05:09;99730.56;;;16.71;100.00
14253;BME280;7210;51.502;10.722;2022-07-23T04:07:37;99733.78;;;16.73;100.00
14253;BME280;7210;51.502;10.722;2022-07-23T04:10:08;99726.56;;;16.69;100.00
14253;BME280;7210;51.502;10.722;2022-07-23T04:12:35;99731.09;;;16.63;100.00
14253;BME280;7210;51.502;10.722;2022-07-23T04:15:07;99728.94;;;16.65;100.00
14253;BME280;7210;51.502;10.722;2022-07-23T04:17:39;99727.91;;;16.71;100.00
14253;BME280;7210;51.502;10.722;2022-07-23T04:20:08;99720.13;;;16.70;100.00
14253;BME280;7210;51.502;10.722;2022-07-23T04:22:43;99731.38;;;16.77;100.00
14253;BME280;7210;51.502;10.722;2022-07-23T04:25:12;99726.81;;;16.77;100.00
14253;BME280;7210;51.502;10.722;2022-07-23T04:27:43;99735.41;;;16.79;100.00
14253;BME280;7210;51.502;10.722;2022-07-23T04:30:11;99745.00;;;16.75;100.00
14253;BME280;7210;51.502;10.722;2022-07-23T04:32:40;99748.19;;;16.77;100.00
14253;BME280;7210;51.502;10.722;2022-07-23T04:35:15;99743.13;;;16.81;100.00
14253;BME280;7210;51.502;10.722;2022-07-23T04:37:42;99750.09;;;16.82;100.00
14253;BME280;7210;51.502;10.722;2022-07-23T04:40:12;99744.19;;;16.75;100.00
14253;BME280;7210;51.502;10.722;2022-07-23T04:42:40;99758.66;;;16.94;100.00
14253;BME280;7210;51.502;10.722;2022-07-23T04:45:08;99756.63;;;17.36;100.00
14253;BME280;7210;51.502;10.722;2022-07-23T04:47:37;99756.34;;;17.32;100.00
14253;BME280;7210;51.502;10.722;2022-07-23T04:50:05;99770.75;;;17.21;100.00
14253;BME280;7210;51.502;10.722;2022-07-23T04:52:32;99770.72;;;17.11;100.00
14253;BME280;7210;51.502;10.722;2022-07-23T04:55:00;99760.00;;;16.91;100.00
14253;BME280;7210;51.502;10.722;2022-07-23T04:57:29;99751.69;;;16.83;100.00
14253;BME280;7210;51.502;10.722;2022-07-23T04:59:56;99740.75;;;16.79;100.00
14253;BME280;7210;51.502;10.722;2022-07-23T05:02:27;99722.56;;;16.76;100.00
14253;BME280;7210;51.502;10.722;2022-07-23T05:04:57;99697.47;;;16.72;100.00
14253;BME280;7210;51.502;10.722;2022-07-23T05:07:30;99702.25;;;16.70;100.00
14253;BME280;7210;51.502;10.722;2022-07-23T05:10:05;99701.72;;;16.73;100.00
14253;BME280;7210;51.502;10.722;2022-07-23T05:12:37;99704.41;;;16.73;100.00
14253;BME280;7210;51.502;10.722;2022-07-23T05:15:05;99709.75;;;16.73;100.00
14253;BME280;7210;51.502;10.722;2022-07-23T05:17:33;99719.38;;;16.79;100.00
14253;BME280;7210;51.502;10.722;2022-07-23T05:20:04;99714.03;;;16.79;100.00
14253;BME280;7210;51.502;10.722;2022-07-23T05:22:32;99704.13;;;16.80;100.00
14253;BME280;7210;51.502;10.722;2022-07-23T05:25:00;99716.19;;;16.87;100.00
14253;BME280;7210;51.502;10.722;2022-07-23T05:27:28;99714.03;;;16.89;100.00
14253;BME280;7210;51.502;10.722;2022-07-23T05:29:57;99716.19;;;16.97;100.00
14253;BME280;7210;51.502;10.722;2022-07-23T05:32:27;99713.53;;;17.02;100.00
14253;BME280;7210;51.502;10.722;2022-07-23T05:35:11;99704.72;;;17.07;100.00
14253;BME280;7210;51.502;10.722;2022-07-23T05:37:44;99711.94;;;17.11;100.00
14253;BME280;7210;51.502;10.722;2022-07-23T05:40:14;99709.00;;;17.03;100.00
14253;BME280;7210;51.502;10.722;2022-07-23T05:42:42;99703.91;;;17.06;100.00
14253;BME280;7210;51.502;10.722;2022-07-23T05:45:11;99701.78;;;17.08;100.00
14253;BME280;7210;51.502;10.722;2022-07-23T05:47:45;99710.88;;;17.12;100.00
14253;BME280;7210;51.502;10.722;2022-07-23T05:50:16;99717.28;;;17.11;100.00
14253;BME280;7210;51.502;10.722;2022-07-23T05:52:51;99718.38;;;17.10;100.00
14253;BME280;7210;51.502;10.722;2022-07-23T05:55:28;99722.63;;;17.11;100.00
14253;BME280;7210;51.502;10.722;2022-07-23T05:57:58;99719.97;;;17.16;100.00
14253;BME280;7210;51.502;10.722;2022-07-23T06:00:29;99727.97;;;17.21;100.00
14253;BME280;7210;51.502;10.722;2022-07-23T06:02:58;99726.66;;;17.14;100.00
14253;BME280;7210;51.502;10.722;2022-07-23T06:05:33;99722.66;;;17.16;100.00
14253;BME280;7210;51.502;10.722;2022-07-23T06:08:03;99716.75;;;17.19;100.00
14253;BME280;7210;51.502;10.722;2022-07-23T06:10:33;99722.63;;;17.21;100.00
14253;BME280;7210;51.502;10.722;2022-07-23T06:13:00;99719.19;;;17.21;100.00
14253;BME280;7210;51.502;10.722;2022-07-23T06:15:29;99711.94;;;17.21;100.00
14253;BME280;7210;51.502;10.722;2022-07-23T06:18:03;99707.97;;;17.29;100.00
14253;BME280;7210;51.502;10.722;2022-07-23T06:20:31;99705.00;;;17.30;100.00
14253;BME280;7210;51.502;10.722;2022-07-23T06:22:58;99702.91;;;17.42;100.00
14253;BME280;7210;51.502;10.722;2022-07-23T06:25:26;99702.34;;;17.45;100.00
14253;BME280;7210;51.502;10.722;2022-07-23T06:27:57;99712.53;;;17.48;100.00
14253;BME280;7210;51.502;10.722;2022-07-23T06:30:26;99709.31;;;17.51;100.00
14253;BME280;7210;51.502;10.722;2022-07-23T06:32:55;99710.91;;;17.57;100.00
14253;BME280;7210;51.502;10.722;2022-07-23T06:35:22;99711.41;;;17.74;100.00
14253;BME280;7210;51.502;10.722;2022-07-23T06:37:49;99718.94;;;17.72;100.00
14253;BME280;7210;51.502;10.722;2022-07-23T06:40:17;99716.78;;;17.64;100.00
14253;BME280;7210;51.502;10.722;2022-07-23T06:42:44;99717.06;;;17.68;100.00
14253;BME280;7210;51.502;10.722;2022-07-23T06:45:21;99714.09;;;17.69;100.00
14253;BME280;7210;51.502;10.722;2022-07-23T06:47:49;99719.44;;;17.79;100.00
14253;BME280;7210;51.502;10.722;2022-07-23T06:50:17;99723.16;;;17.93;100.00
14253;BME280;7210;51.502;10.722;2022-07-23T06:52:45;99731.69;;;18.05;100.00
14253;BME280;7210;51.502;10.722;2022-07-23T06:55:12;99724.19;;;18.07;100.00
14253;BME280;7210;51.502;10.722;2022-07-23T06:57:39;99720.16;;;18.15;100.00
14253;BME280;7210;51.502;10.722;2022-07-23T07:00:08;99711.81;;;18.31;100.00
14253;BME280;7210;51.502;10.722;2022-07-23T07:02:35;99713.34;;;18.47;100.00
14253;BME280;7210;51.502;10.722;2022-07-23T07:05:05;99718.72;;;18.52;100.00
14253;BME280;7210;51.502;10.722;2022-07-23T07:07:33;99723.75;;;18.64;100.00
14253;BME280;7210;51.502;10.722;2022-07-23T07:10:01;99723.97;;;18.72;100.00
14253;BME280;7210;51.502;10.722;2022-07-23T07:12:28;99720.16;;;18.78;100.00
14253;BME280;7210;51.502;10.722;2022-07-23T07:14:55;99719.59;;;18.86;100.00
14253;BME280;7210;51.502;10.722;2022-07-23T07:17:23;99718.66;;;19.06;100.00
14253;BME280;7210;51.502;10.722;2022-07-23T07:19:50;99720.44;;;19.25;100.00
14253;BME280;7210;51.502;10.722;2022-07-23T07:22:18;99721.97;;;19.36;100.00
14253;BME280;7210;51.502;10.722;2022-07-23T07:24:46;99715.34;;;19.57;100.00
14253;BME280;7210;51.502;10.722;2022-07-23T07:27:13;99717.81;;;19.82;100.00
14253;BME280;7210;51.502;10.722;2022-07-23T07:29:41;99725.03;;;20.10;100.00
14253;BME280;7210;51.502;10.722;2022-07-23T07:32:08;99724.09;;;19.96;100.00
14253;BME280;7210;51.502;10.722;2022-07-23T07:34:35;99729.34;;;20.11;100.00
14253;BME280;7210;51.502;10.722;2022-07-23T07:37:02;99727.44;;;20.11;100.00
14253;BME280;7210;51.502;10.722;2022-07-23T07:39:30;99731.09;;;20.20;100.00
14253;BME280;7210;51.502;10.722;2022-07-23T07:41:58;99729.63;;;20.09;100.00
14253;BME280;7210;51.502;10.722;2022-07-23T07:44:27;99737.16;;;20.07;100.00
14253;BME280;7210;51.502;10.722;2022-07-23T07:46:54;99729.94;;;20.03;100.00
14253;BME280;7210;51.502;10.722;2022-07-23T07:49:22;99741.81;;;19.97;100.00
14253;BME280;7210;51.502;10.722;2022-07-23T07:51:49;99750.38;;;19.99;100.00
14253;BME280;7210;51.502;10.722;2022-07-23T07:54:21;99755.66;;;20.09;100.00
14253;BME280;7210;51.502;10.722;2022-07-23T07:56:48;99751.38;;;20.08;100.00
14253;BME280;7210;51.502;10.722;2022-07-23T07:59:17;99760.13;;;20.18;100.00
14253;BME280;7210;51.502;10.722;2022-07-23T08:01:44;99748.56;;;20.18;100.00
14253;BME280;7210;51.502;10.722;2022-07-23T08:04:11;99764.03;;;20.31;100.00
14253;BME280;7210;51.502;10.722;2022-07-23T08:06:39;99762.69;;;20.28;100.00
14253;BME280;7210;51.502;10.722;2022-07-23T08:09:06;99775.56;;;20.31;100.00
14253;BME280;7210;51.502;10.722;2022-07-23T08:11:33;99769.03;;;20.37;100.00
14253;BME280;7210;51.502;10.722;2022-07-23T08:14:00;99773.16;;;20.30;100.00
14253;BME280;7210;51.502;10.722;2022-07-23T08:16:29;99774.13;;;20.39;100.00
14253;BME280;7210;51.502;10.722;2022-07-23T08:18:56;99770.94;;;20.37;100.00
14253;BME280;7210;51.502;10.722;2022-07-23T08:21:23;99772.00;;;20.12;100.00
14253;BME280;7210;51.502;10.722;2022-07-23T08:23:51;99777.78;;;19.96;100.00
14253;BME280;7210;51.502;10.722;2022-07-23T08:26:18;99778.56;;;19.96;100.00
14253;BME280;7210;51.502;10.722;2022-07-23T08:28:45;99779.81;;;20.09;100.00
14253;BME280;7210;51.502;10.722;2022-07-23T08:31:15;99775.03;;;20.01;100.00
14253;BME280;7210;51.502;10.722;2022-07-23T08:33:45;99782.00;;;20.02;100.00
14253;BME280;7210;51.502;10.722;2022-07-23T08:36:12;99778.44;;;20.16;100.00
14253;BME280;7210;51.502;10.722;2022-07-23T08:38:39;99783.50;;;20.18;100.00
14253;BME280;7210;51.502;10.722;2022-07-23T08:41:08;99789.28;;;20.30;100.00
14253;BME280;7210;51.502;10.722;2022-07-23T08:43:35;99783.13;;;20.53;100.00
14253;BME280;7210;51.502;10.722;2022-07-23T08:46:04;99787.66;;;20.76;100.00
14253;BME280;7210;51.502;10.722;2022-07-23T08:48:34;99783.84;;;20.82;99.06
14253;BME280;7210;51.502;10.722;2022-07-23T08:51:06;99780.31;;;20.63;97.19
14253;BME280;7210;51.502;10.722;2022-07-23T08:53:35;99792.31;;;20.47;97.13
14253;BME280;7210;51.502;10.722;2022-07-23T08:56:05;99782.66;;;20.22;96.78
14253;BME280;7210;51.502;10.722;2022-07-23T08:58:32;99785.34;;;20.22;98.41
14253;BME280;7210;51.502;10.722;2022-07-23T09:01:00;99791.47;;;20.28;97.78
14253;BME280;7210;51.502;10.722;2022-07-23T09:03:30;99785.97;;;20.38;95.22
14253;BME280;7210;51.502;10.722;2022-07-23T09:05:59;99780.31;;;20.39;93.56
14253;BME280;7210;51.502;10.722;2022-07-23T09:08:36;99790.75;;;20.41;95.37
14253;BME280;7210;51.502;10.722;2022-07-23T09:11:06;99789.63;;;20.47;95.29
14253;BME280;7210;51.502;10.722;2022-07-23T09:13:38;99783.69;;;20.50;91.99
14253;BME280;7210;51.502;10.722;2022-07-23T09:16:10;99790.09;;;20.54;91.08
14253;BME280;7210;51.502;10.722;2022-07-23T09:18:46;99781.63;;;20.42;86.86
14253;BME280;7210;51.502;10.722;2022-07-23T09:21:24;99779.91;;;20.51;89.74
14253;BME280;7210;51.502;10.722;2022-07-23T09:23:57;99784.47;;;20.74;90.10
14253;BME280;7210;51.502;10.722;2022-07-23T09:26:33;99777.75;;;20.95;90.84
14253;BME280;7210;51.502;10.722;2022-07-23T09:29:08;99783.31;;;21.03;89.63
14253;BME280;7210;51.502;10.722;2022-07-23T09:31:48;99783.53;;;21.07;89.27
14253;BME280;7210;51.502;10.722;2022-07-23T09:34:19;99791.09;;;21.23;89.90
14253;BME280;7210;51.502;10.722;2022-07-23T09:36:47;99780.03;;;21.25;87.84
14253;BME280;7210;51.502;10.722;2022-07-23T09:39:25;99783.81;;;21.42;87.39
14253;BME280;7210;51.502;10.722;2022-07-23T09:41:53;99784.00;;;21.64;86.97
14253;BME280;7210;51.502;10.722;2022-07-23T09:44:21;99780.28;;;21.79;84.72
14253;BME280;7210;51.502;10.722;2022-07-23T09:46:50;99775.09;;;21.82;83.95
14253;BME280;7210;51.502;10.722;2022-07-23T09:49:24;99773.38;;;22.05;83.27
14253;BME280;7210;51.502;10.722;2022-07-23T09:51:55;99768.91;;;22.14;78.06
14253;BME280;7210;51.502;10.722;2022-07-23T09:54:33;99776.06;;;22.05;77.99
14253;BME280;7210;51.502;10.722;2022-07-23T09:57:06;99777.13;;;22.04;76.56
14253;BME280;7210;51.502;10.722;2022-07-23T09:59:37;99770.28;;;22.11;79.33
14253;BME280;7210;51.502;10.722;2022-07-23T10:02:07;99768.19;;;22.22;78.59
14253;BME280;7210;51.502;10.722;2022-07-23T10:04:47;99775.22;;;22.50;77.55
14253;BME280;7210;51.502;10.722;2022-07-23T10:07:27;99775.03;;;22.60;74.59
14253;BME280;7210;51.502;10.722;2022-07-23T10:10:16;99767.22;;;22.72;74.17
14253;BME280;7210;51.502;10.722;2022-07-23T10:13:02;99765.59;;;22.98;71.82
14253;BME280;7210;51.502;10.722;2022-07-23T10:16:01;99764.56;;;23.07;73.06
14253;BME280;7210;51.502;10.722;2022-07-23T10:18:30;99763.34;;;23.13;72.39
14253;BME280;7210;51.502;10.722;2022-07-23T10:20:59;99762.47;;;23.40;72.94
14253;BME280;7210;51.502;10.722;2022-07-23T10:23:33;99761.44;;;23.27;70.56
14253;BME280;7210;51.502;10.722;2022-07-23T10:26:14;99761.97;;;23.16;70.86
14253;BME280;7210;51.502;10.722;2022-07-23T10:29:02;99762.03;;;23.11;71.63
14253;BME280;7210;51.502;10.722;2022-07-23T10:31:50;99751.38;;;23.06;70.26
14253;BME280;7210;51.502;10.722;2022-07-23T10:34:27;99748.38;;;23.21;72.34
14253;BME280;7210;51.502;10.722;2022-07-23T10:37:05;99748.06;;;23.44;69.47
14253;BME280;7210;51.502;10.722;2022-07-23T10:39:39;99753.41;;;23.58;70.32
14253;BME280;7210;51.502;10.722;2022-07-23T10:42:13;99754.94;;;23.72;68.22
14253;BME280;7210;51.502;10.722;2022-07-23T10:44:48;99752.91;;;23.77;68.95
14253;BME280;7210;51.502;10.722;2022-07-23T10:50:30;99754.25;;;23.88;67.00
14253;BME280;7210;51.502;10.722;2022-07-23T10:53:20;99753.16;;;23.68;67.17
14253;BME280;7210;51.502;10.722;2022-07-23T10:56:09;99759.53;;;23.72;65.71
14253;BME280;7210;51.502;10.722;2022-07-23T10:58:53;99760.47;;;23.89;67.92
14253;BME280;7210;51.502;10.722;2022-07-23T11:01:35;99754.88;;;23.86;65.50
14253;BME280;7210;51.502;10.722;2022-07-23T11:04:04;99755.84;;;23.89;65.75
14253;BME280;7210;51.502;10.722;2022-07-23T11:07:07;99753.16;;;23.89;65.66
14253;BME280;7210;51.502;10.722;2022-07-23T11:09:43;99762.44;;;24.05;67.68
14253;BME280;7210;51.502;10.722;2022-07-23T11:12:35;99714.31;;;24.07;65.16
14253;BME280;7210;51.502;10.722;2022-07-23T11:15:07;99745.50;;;24.13;64.57
14253;BME280;7210;51.502;10.722;2022-07-23T11:18:01;99744.53;;;24.09;62.66
14253;BME280;7210;51.502;10.722;2022-07-23T11:20:42;99749.75;;;24.06;63.12
14253;BME280;7210;51.502;10.722;2022-07-23T11:23:09;99751.78;;;24.00;64.39
14253;BME280;7210;51.502;10.722;2022-07-23T11:25:44;99752.94;;;24.08;64.67
14253;BME280;7210;51.502;10.722;2022-07-23T11:28:18;99747.59;;;24.25;63.62
14253;BME280;7210;51.502;10.722;2022-07-23T11:30:48;99748.13;;;24.35;61.85
14253;BME280;7210;51.502;10.722;2022-07-23T11:33:21;99748.53;;;24.20;62.78
14253;BME280;7210;51.502;10.722;2022-07-23T11:36:00;99752.56;;;24.31;61.07
14253;BME280;7210;51.502;10.722;2022-07-23T11:38:31;99756.09;;;24.40;61.35
14253;BME280;7210;51.502;10.722;2022-07-23T11:40:59;99754.84;;;24.46;62.34
14253;BME280;7210;51.502;10.722;2022-07-23T11:43:27;99753.00;;;24.55;60.86
14253;BME280;7210;51.502;10.722;2022-07-23T11:45:59;99763.16;;;24.58;60.69
14253;BME280;7210;51.502;10.722;2022-07-23T11:48:31;99742.72;;;24.35;58.67
14253;BME280;7210;51.502;10.722;2022-07-23T11:50:59;99759.94;;;24.48;61.30
14253;BME280;7210;51.502;10.722;2022-07-23T11:53:28;99749.19;;;24.56;59.52
14253;BME280;7210;51.502;10.722;2022-07-23T11:56:04;99749.22;;;24.65;58.96
14253;BME280;7210;51.502;10.722;2022-07-23T11:58:33;99753.16;;;24.67;57.48
14253;BME280;7210;51.502;10.722;2022-07-23T12:01:02;99759.53;;;24.63;59.42
14253;BME280;7210;51.502;10.722;2022-07-23T12:03:30;99767.69;;;24.88;59.42
14253;BME280;7210;51.502;10.722;2022-07-23T12:05:58;99760.88;;;25.08;58.11
14253;BME280;7210;51.502;10.722;2022-07-23T12:08:26;99769.63;;;24.96;57.44
14253;BME280;7210;51.502;10.722;2022-07-23T12:10:53;99771.84;;;24.94;58.00
14253;BME280;7210;51.502;10.722;2022-07-23T12:13:22;99764.22;;;25.13;56.07
14253;BME280;7210;51.502;10.722;2022-07-23T12:15:52;99753.06;;;25.06;55.02
14253;BME280;7210;51.502;10.722;2022-07-23T12:18:24;99757.22;;;25.12;55.64
14253;BME280;7210;51.502;10.722;2022-07-23T12:20:54;99756.97;;;25.22;54.86
14253;BME280;7210;51.502;10.722;2022-07-23T12:23:25;99759.00;;;25.25;56.60
14253;BME280;7210;51.502;10.722;2022-07-23T12:25:53;99765.22;;;25.51;55.31
14253;BME280;7210;51.502;10.722;2022-07-23T12:28:27;99765.38;;;25.55;55.16
14253;BME280;7210;51.502;10.722;2022-07-23T12:30:58;99759.78;;;25.60;53.00
14253;BME280;7210;51.502;10.722;2022-07-23T12:33:29;99761.38;;;25.69;53.17
14253;BME280;7210;51.502;10.722;2022-07-23T12:35:59;99771.22;;;25.82;55.27
14253;BME280;7210;51.502;10.722;2022-07-23T12:38:36;99770.22;;;26.12;54.11
14253;BME280;7210;51.502;10.722;2022-07-23T12:41:04;99769.50;;;26.32;53.82
14253;BME280;7210;51.502;10.722;2022-07-23T12:43:37;99767.78;;;26.28;52.93
14253;BME280;7210;51.502;10.722;2022-07-23T12:46:06;99773.34;;;26.31;52.88
14253;BME280;7210;51.502;10.722;2022-07-23T12:48:38;99777.97;;;26.31;52.92
14253;BME280;7210;51.502;10.722;2022-07-23T12:51:14;99763.72;;;26.42;52.25
14253;BME280;7210;51.502;10.722;2022-07-23T12:53:49;99766.09;;;26.52;50.37
14253;BME280;7210;51.502;10.722;2022-07-23T12:56:29;99771.19;;;26.54;51.91
14253;BME280;7210;51.502;10.722;2022-07-23T12:59:08;99768.19;;;26.76;51.95
14253;BME280;7210;51.502;10.722;2022-07-23T13:01:42;99772.19;;;26.78;48.89
14253;BME280;7210;51.502;10.722;2022-07-23T13:04:19;99780.59;;;26.48;50.31
14253;BME280;7210;51.502;10.722;2022-07-23T13:06:51;99772.66;;;25.97;50.45
14253;BME280;7210;51.502;10.722;2022-07-23T13:09:21;99777.59;;;25.86;50.79
14253;BME280;7210;51.502;10.722;2022-07-23T13:11:50;99800.56;;;25.80;51.41
14253;BME280;7210;51.502;10.722;2022-07-23T13:14:19;99797.06;;;25.71;51.89
14253;BME280;7210;51.502;10.722;2022-07-23T13:16:48;99796.09;;;25.84;51.11